sensor_id;sensor_type;location;lat;lon;timestamp;temperature;humidity
61400;DHT22;47269;48.182;-1.946;2023-06-04T06:02:33;13.50;99.90
61400;DHT22;47269;48.182;-1.946;2023-06-04T06:05:00;13.40;99.90
61400;DHT22;47269;48.182;-1.946;2023-06-04T06:07:25;13.30;99.90
61400;DHT22;47269;48.182;-1.946;2023-06-04T06:09:51;13.30;99.90
61400;DHT22;47269;48.182;-1.946;2023-06-04T06:12:17;13.40;99.90
61400;DHT22;47269;48.182;-1.946;2023-06-04T06:14:43;13.70;99.90
61400;DHT22;47269;48.182;-1.946;2023-06-04T06:17:08;13.90;99.90
61400;DHT22;47269;48.182;-1.946;2023-06-04T06:19:35;14.00;99.90
61400;DHT22;47269;48.182;-1.946;2023-06-04T06:22:01;14.20;99.90
61400;DHT22;47269;48.182;-1.946;2023-06-04T06:24:29;14.30;99.90
61400;DHT22;47269;48.182;-1.946;2023-06-04T06:26:54;14.40;99.90
61400;DHT22;47269;48.182;-1.946;2023-06-04T06:29:20;14.40;99.90
61400;DHT22;47269;48.182;-1.946;2023-06-04T06:31:46;14.60;99.90
61400;DHT22;47269;48.182;-1.946;2023-06-04T06:34:12;14.70;99.90
61400;DHT22;47269;48.182;-1.946;2023-06-04T06:36:37;14.70;99.90
61400;DHT22;47269;48.182;-1.946;2023-06-04T06:39:04;14.80;99.90
61400;DHT22;47269;48.182;-1.946;2023-06-04T06:41:30;14.80;99.90
61400;DHT22;47269;48.182;-1.946;2023-06-04T06:43:57;14.90;99.90
61400;DHT22;47269;48.182;-1.946;2023-06-04T06:46:23;15.00;99.90
61400;DHT22;47269;48.182;-1.946;2023-06-04T06:48:49;15.10;99.90
61400;DHT22;47269;48.182;-1.946;2023-06-04T06:51:14;15.10;99.90
61400;DHT22;47269;48.182;-1.946;2023-06-04T06:53:40;15.20;99.90
61400;DHT22;47269;48.182;-1.946;2023-06-04T06:56:07;15.30;99.90
61400;DHT22;47269;48.182;-1.946;2023-06-04T06:58:32;15.40;99.90
61400;DHT22;47269;48.182;-1.946;2023-06-04T07:01:31;15.50;99.90
61400;DHT22;47269;48.182;-1.946;2023-06-04T07:03:59;15.70;99.90
61400;DHT22;47269;48.182;-1.946;2023-06-04T07:06:24;15.70;99.90
61400;DHT22;47269;48.182;-1.946;2023-06-04T07:08:50;15.80;99.90
61400;DHT22;47269;48.182;-1.946;2023-06-04T07:11:16;15.90;99.90
61400;DHT22;47269;48.182;-1.946;2023-06-04T07:13:42;16.10;99.90
61400;DHT22;47269;48.182;-1.946;2023-06-04T07:16:08;16.20;99.90
61400;DHT22;47269;48.182;-1.946;2023-06-04T07:18:33;16.20;99.90
61400;DHT22;47269;48.182;-1.946;2023-06-04T07:20:59;16.20;99.90
61400;DHT22;47269;48.182;-1.946;2023-06-04T07:23:25;16.30;99.90
61400;DHT22;47269;48.182;-1.946;2023-06-04T07:25:51;16.50;99.90
61400;DHT22;47269;48.182;-1.946;2023-06-04T07:28:16;16.60;99.90
61400;DHT22;47269;48.182;-1.946;2023-06-04T07:30:44;16.60;99.90
61400;DHT22;47269;48.182;-1.946;2023-06-04T07:33:10;16.80;99.90
61400;DHT22;47269;48.182;-1.946;2023-06-04T07:35:35;17.00;99.90
61400;DHT22;47269;48.182;-1.946;2023-06-04T07:38:01;17.00;99.90
61400;DHT22;47269;48.182;-1.946;2023-06-04T07:40:27;17.10;99.90
61400;DHT22;47269;48.182;-1.946;2023-06-04T07:42:53;17.20;99.90
61400;DHT22;47269;48.182;-1.946;2023-06-04T07:45:18;17.40;99.90
61400;DHT22;47269;48.182;-1.946;2023-06-04T07:47:44;17.70;99.90
61400;DHT22;47269;48.182;-1.946;2023-06-04T07:50:10;17.50;99.90
61400;DHT22;47269;48.182;-1.946;2023-06-04T07:52:36;17.70;99.90
61400;DHT22;47269;48.182;-1.946;2023-06-04T07:55:02;17.90;99.90
61400;DHT22;47269;48.182;-1.946;2023-06-04T07:57:28;18.00;99.90
61400;DHT22;47269;48.182;-1.946;2023-06-04T07:59:54;18.30;99.90
61400;DHT22;47269;48.182;-1.946;2023-06-04T08:02:22;18.40;99.90
61400;DHT22;47269;48.182;-1.946;2023-06-04T08:04:48;18.60;99.90
61400;DHT22;47269;48.182;-1.946;2023-06-04T08:07:13;18.40;99.90
61400;DHT22;47269;48.182;-1.946;2023-06-04T08:09:39;18.70;99.90
61400;DHT22;47269;48.182;-1.946;2023-06-04T08:12:05;19.00;99.90
61400;DHT22;47269;48.182;-1.946;2023-06-04T08:14:32;18.90;99.90
61400;DHT22;47269;48.182;-1.946;2023-06-04T08:16:58;18.80;99.90
61400;DHT22;47269;48.182;-1.946;2023-06-04T08:19:24;18.70;99.90
61400;DHT22;47269;48.182;-1.946;2023-06-04T08:21:50;18.80;99.90
61400;DHT22;47269;48.182;-1.946;2023-06-04T08:24:16;19.10;99.90
61400;DHT22;47269;48.182;-1.946;2023-06-04T08:26:42;19.00;99.90
61400;DHT22;47269;48.182;-1.946;2023-06-04T08:29:07;19.20;99.90
61400;DHT22;47269;48.182;-1.946;2023-06-04T08:31:33;19.10;99.90
61400;DHT22;47269;48.182;-1.946;2023-06-04T08:33:59;19.30;99.90
61400;DHT22;47269;48.182;-1.946;2023-06-04T08:36:25;19.40;99.90
61400;DHT22;47269;48.182;-1.946;2023-06-04T08:38:51;19.40;99.90
61400;DHT22;47269;48.182;-1.946;2023-06-04T08:43:58;19.50;99.90
61400;DHT22;47269;48.182;-1.946;2023-06-04T08:46:28;19.80;99.90
61400;DHT22;47269;48.182;-1.946;2023-06-04T08:48:56;20.20;99.90
61400;DHT22;47269;48.182;-1.946;2023-06-04T08:51:25;20.20;99.90
61400;DHT22;47269;48.182;-1.946;2023-06-04T08:53:51;20.30;99.90
61400;DHT22;47269;48.182;-1.946;2023-06-04T08:56:20;20.10;99.90
61400;DHT22;47269;48.182;-1.946;2023-06-04T08:58:47;20.30;99.90
61400;DHT22;47269;48.182;-1.946;2023-06-04T09:01:14;20.30;99.90
61400;DHT22;47269;48.182;-1.946;2023-06-04T09:03:40;20.60;99.90
61400;DHT22;47269;48.182;-1.946;2023-06-04T09:06:07;21.00;99.90
61400;DHT22;47269;48.182;-1.946;2023-06-04T09:08:36;20.60;99.90
61400;DHT22;47269;48.182;-1.946;2023-06-04T09:11:07;20.90;99.90
61400;DHT22;47269;48.182;-1.946;2023-06-04T09:13:33;21.00;99.90
61400;DHT22;47269;48.182;-1.946;2023-06-04T09:16:04;21.20;99.90
61400;DHT22;47269;48.182;-1.946;2023-06-04T09:18:31;21.40;99.90
61400;DHT22;47269;48.182;-1.946;2023-06-04T09:21:08;21.80;99.90
61400;DHT22;47269;48.182;-1.946;2023-06-04T09:23:44;22.20;99.90
61400;DHT22;47269;48.182;-1.946;2023-06-04T09:26:10;21.90;99.90
61400;DHT22;47269;48.182;-1.946;2023-06-04T09:28:43;22.30;99.90
61400;DHT22;47269;48.182;-1.946;2023-06-04T09:31:18;22.30;99.90
61400;DHT22;47269;48.182;-1.946;2023-06-04T09:33:48;22.30;99.90
61400;DHT22;47269;48.182;-1.946;2023-06-04T09:36:14;22.20;99.90
61400;DHT22;47269;48.182;-1.946;2023-06-04T09:38:43;22.10;99.90
61400;DHT22;47269;48.182;-1.946;2023-06-04T09:41:13;22.40;99.90
61400;DHT22;47269;48.182;-1.946;2023-06-04T09:43:39;22.60;99.90
61400;DHT22;47269;48.182;-1.946;2023-06-04T09:46:09;22.70;99.90
61400;DHT22;47269;48.182;-1.946;2023-06-04T09:48:36;22.60;99.90
61400;DHT22;47269;48.182;-1.946;2023-06-04T09:51:09;23.00;99.90
61400;DHT22;47269;48.182;-1.946;2023-06-04T09:53:36;22.60;99.90
61400;DHT22;47269;48.182;-1.946;2023-06-04T09:56:03;22.50;99.90
61400;DHT22;47269;48.182;-1.946;2023-06-04T09:58:30;22.80;99.90
61400;DHT22;47269;48.182;-1.946;2023-06-04T10:00:57;23.10;99.90
61400;DHT22;47269;48.182;-1.946;2023-06-04T10:03:32;22.50;99.90
61400;DHT22;47269;48.182;-1.946;2023-06-04T10:06:00;22.60;99.90
61400;DHT22;47269;48.182;-1.946;2023-06-04T10:08:27;23.20;99.90
61400;DHT22;47269;48.182;-1.946;2023-06-04T10:10:58;23.10;99.90
61400;DHT22;47269;48.182;-1.946;2023-06-04T10:13:29;23.40;99.90
61400;DHT22;47269;48.182;-1.946;2023-06-04T10:15:59;23.90;99.90
61400;DHT22;47269;48.182;-1.946;2023-06-04T10:18:29;23.90;99.90
61400;DHT22;47269;48.182;-1.946;2023-06-04T10:20:56;23.70;99.90
61400;DHT22;47269;48.182;-1.946;2023-06-04T10:23:22;23.40;99.90
61400;DHT22;47269;48.182;-1.946;2023-06-04T10:25:52;24.00;99.90
61400;DHT22;47269;48.182;-1.946;2023-06-04T10:28:20;24.10;99.90
61400;DHT22;47269;48.182;-1.946;2023-06-04T10:30:47;23.90;99.90
61400;DHT22;47269;48.182;-1.946;2023-06-04T10:33:14;24.00;99.90
61400;DHT22;47269;48.182;-1.946;2023-06-04T10:35:40;24.20;99.90
61400;DHT22;47269;48.182;-1.946;2023-06-04T10:38:12;23.80;99.90
61400;DHT22;47269;48.182;-1.946;2023-06-04T10:40:42;23.70;99.90
61400;DHT22;47269;48.182;-1.946;2023-06-04T10:43:12;23.70;99.90
61400;DHT22;47269;48.182;-1.946;2023-06-04T10:45:39;23.80;99.90
61400;DHT22;47269;48.182;-1.946;2023-06-04T10:48:09;24.00;99.90
61400;DHT22;47269;48.182;-1.946;2023-06-04T10:50:50;24.50;99.90
61400;DHT22;47269;48.182;-1.946;2023-06-04T10:53:17;24.80;99.90
61400;DHT22;47269;48.182;-1.946;2023-06-04T10:55:45;25.00;99.90
61400;DHT22;47269;48.182;-1.946;2023-06-04T10:58:11;24.50;99.90
61400;DHT22;47269;48.182;-1.946;2023-06-04T11:00:39;24.80;99.90
61400;DHT22;47269;48.182;-1.946;2023-06-04T11:03:06;25.30;99.90
61400;DHT22;47269;48.182;-1.946;2023-06-04T11:05:39;25.20;99.90
61400;DHT22;47269;48.182;-1.946;2023-06-04T11:08:06;24.80;99.90
61400;DHT22;47269;48.182;-1.946;2023-06-04T11:10:43;25.30;99.90
61400;DHT22;47269;48.182;-1.946;2023-06-04T11:13:09;25.30;99.90
61400;DHT22;47269;48.182;-1.946;2023-06-04T11:18:04;25.60;99.90
61400;DHT22;47269;48.182;-1.946;2023-06-04T11:20:30;25.90;99.90
61400;DHT22;47269;48.182;-1.946;2023-06-04T11:22:58;25.20;99.90
61400;DHT22;47269;48.182;-1.946;2023-06-04T11:25:25;25.60;99.90
61400;DHT22;47269;48.182;-1.946;2023-06-04T11:27:52;25.70;99.90
61400;DHT22;47269;48.182;-1.946;2023-06-04T11:30:19;26.50;99.90
61400;DHT22;47269;48.182;-1.946;2023-06-04T11:32:45;26.60;99.90
61400;DHT22;47269;48.182;-1.946;2023-06-04T11:35:11;26.80;99.90
61400;DHT22;47269;48.182;-1.946;2023-06-04T11:37:37;26.60;99.90
61400;DHT22;47269;48.182;-1.946;2023-06-04T11:40:18;26.10;99.90
61400;DHT22;47269;48.182;-1.946;2023-06-04T11:42:45;26.70;99.90
61400;DHT22;47269;48.182;-1.946;2023-06-04T11:45:16;26.70;99.90
61400;DHT22;47269;48.182;-1.946;2023-06-04T11:47:47;27.10;99.90
61400;DHT22;47269;48.182;-1.946;2023-06-04T11:50:13;27.50;99.90
61400;DHT22;47269;48.182;-1.946;2023-06-04T11:52:39;27.30;99.90
61400;DHT22;47269;48.182;-1.946;2023-06-04T11:55:11;27.20;99.90
61400;DHT22;47269;48.182;-1.946;2023-06-04T11:57:38;26.90;99.90
61400;DHT22;47269;48.182;-1.946;2023-06-04T12:00:06;27.30;99.90
61400;DHT22;47269;48.182;-1.946;2023-06-04T12:02:48;27.50;99.90
61400;DHT22;47269;48.182;-1.946;2023-06-04T12:05:15;27.90;99.90
61400;DHT22;47269;48.182;-1.946;2023-06-04T12:07:41;27.80;99.90
61400;DHT22;47269;48.182;-1.946;2023-06-04T12:10:10;27.80;99.90
61400;DHT22;47269;48.182;-1.946;2023-06-04T12:12:37;26.70;99.90
61400;DHT22;47269;48.182;-1.946;2023-06-04T12:15:03;27.30;99.90
61400;DHT22;47269;48.182;-1.946;2023-06-04T12:17:31;27.60;99.90
61400;DHT22;47269;48.182;-1.946;2023-06-04T12:19:57;28.10;99.90
61400;DHT22;47269;48.182;-1.946;2023-06-04T12:22:24;28.00;99.90
61400;DHT22;47269;48.182;-1.946;2023-06-04T12:24:56;27.20;99.90
61400;DHT22;47269;48.182;-1.946;2023-06-04T12:27:24;27.70;99.90
61400;DHT22;47269;48.182;-1.946;2023-06-04T12:30:01;28.30;99.90
61400;DHT22;47269;48.182;-1.946;2023-06-04T12:32:28;28.70;99.90
61400;DHT22;47269;48.182;-1.946;2023-06-04T12:34:54;28.80;99.90
61400;DHT22;47269;48.182;-1.946;2023-06-04T12:37:21;28.70;99.90
61400;DHT22;47269;48.182;-1.946;2023-06-04T12:39:47;28.50;99.90
61400;DHT22;47269;48.182;-1.946;2023-06-04T12:42:13;27.80;99.90
61400;DHT22;47269;48.182;-1.946;2023-06-04T12:44:39;28.30;99.90
61400;DHT22;47269;48.182;-1.946;2023-06-04T12:47:06;27.90;99.90
61400;DHT22;47269;48.182;-1.946;2023-06-04T12:49:32;28.00;99.90
61400;DHT22;47269;48.182;-1.946;2023-06-04T12:51:58;28.50;99.90
61400;DHT22;47269;48.182;-1.946;2023-06-04T12:54:24;28.30;99.90
61400;DHT22;47269;48.182;-1.946;2023-06-04T12:56:50;27.90;99.90
61400;DHT22;47269;48.182;-1.946;2023-06-04T12:59:16;28.10;99.90
61400;DHT22;47269;48.182;-1.946;2023-06-04T13:01:42;28.40;99.90
61400;DHT22;47269;48.182;-1.946;2023-06-04T13:04:08;28.70;99.90
61400;DHT22;47269;48.182;-1.946;2023-06-04T13:06:35;29.20;99.90
61400;DHT22;47269;48.182;-1.946;2023-06-04T13:09:04;29.00;99.90
61400;DHT22;47269;48.182;-1.946;2023-06-04T13:11:38;29.20;99.90
61400;DHT22;47269;48.182;-1.946;2023-06-04T13:14:05;28.90;99.90
61400;DHT22;47269;48.182;-1.946;2023-06-04T13:16:30;29.10;99.90
61400;DHT22;47269;48.182;-1.946;2023-06-04T13:18:56;29.10;99.90
61400;DHT22;47269;48.182;-1.946;2023-06-04T13:21:22;29.00;99.90
61400;DHT22;47269;48.182;-1.946;2023-06-04T13:23:48;29.00;99.90
61400;DHT22;47269;48.182;-1.946;2023-06-04T13:26:18;28.70;99.90
61400;DHT22;47269;48.182;-1.946;2023-06-04T13:28:44;29.00;99.90
61400;DHT22;47269;48.182;-1.946;2023-06-04T13:31:10;28.80;99.90
61400;DHT22;47269;48.182;-1.946;2023-06-04T13:33:36;29.00;99.90
61400;DHT22;47269;48.182;-1.946;2023-06-04T13:36:05;29.10;99.90
61400;DHT22;47269;48.182;-1.946;2023-06-04T13:38:34;29.50;99.90
61400;DHT22;47269;48.182;-1.946;2023-06-04T13:41:00;29.80;99.90
61400;DHT22;47269;48.182;-1.946;2023-06-04T13:43:26;29.80;99.90
61400;DHT22;47269;48.182;-1.946;2023-06-04T13:45:52;29.80;99.90
61400;DHT22;47269;48.182;-1.946;2023-06-04T13:48:18;28.90;99.90
61400;DHT22;47269;48.182;-1.946;2023-06-04T13:50:44;28.70;99.90
61400;DHT22;47269;48.182;-1.946;2023-06-04T13:53:10;28.40;99.90
61400;DHT22;47269;48.182;-1.946;2023-06-04T13:55:38;28.40;99.90
61400;DHT22;47269;48.182;-1.946;2023-06-04T13:58:04;28.30;99.90
61400;DHT22;47269;48.182;-1.946;2023-06-04T14:00:30;29.20;99.90
61400;DHT22;47269;48.182;-1.946;2023-06-04T14:02:56;29.40;99.90
61400;DHT22;47269;48.182;-1.946;2023-06-04T14:05:24;29.30;99.90
61400;DHT22;47269;48.182;-1.946;2023-06-04T14:07:50;29.50;99.90
61400;DHT22;47269;48.182;-1.946;2023-06-04T14:10:16;29.40;99.90
61400;DHT22;47269;48.182;-1.946;2023-06-04T14:12:41;29.20;99.90
61400;DHT22;47269;48.182;-1.946;2023-06-04T14:15:08;29.30;99.90
61400;DHT22;47269;48.182;-1.946;2023-06-04T14:17:34;28.90;99.90
61400;DHT22;47269;48.182;-1.946;2023-06-04T14:20:02;28.90;99.90
61400;DHT22;47269;48.182;-1.946;2023-06-04T14:22:33;29.00;99.90
61400;DHT22;47269;48.182;-1.946;2023-06-04T14:24:59;29.00;99.90
61400;DHT22;47269;48.182;-1.946;2023-06-04T14:27:27;29.20;99.90
61400;DHT22;47269;48.182;-1.946;2023-06-04T14:29:53;29.50;99.90
61400;DHT22;47269;48.182;-1.946;2023-06-04T14:32:19;29.10;99.90
61400;DHT22;47269;48.182;-1.946;2023-06-04T14:34:47;29.50;99.90
61400;DHT22;47269;48.182;-1.946;2023-06-04T14:37:12;29.30;99.90
61400;DHT22;47269;48.182;-1.946;2023-06-04T14:39:38;29.00;99.90
61400;DHT22;47269;48.182;-1.946;2023-06-04T14:42:04;28.80;99.90
61400;DHT22;47269;48.182;-1.946;2023-06-04T14:44:32;29.00;99.90
61400;DHT22;47269;48.182;-1.946;2023-06-04T14:46:58;29.70;99.90
61400;DHT22;47269;48.182;-1.946;2023-06-04T14:49:24;29.60;99.90
61400;DHT22;47269;48.182;-1.946;2023-06-04T14:51:50;29.50;99.90
61400;DHT22;47269;48.182;-1.946;2023-06-04T14:54:15;29.40;99.90
61400;DHT22;47269;48.182;-1.946;2023-06-04T14:56:41;29.30;99.90
61400;DHT22;47269;48.182;-1.946;2023-06-04T14:59:07;29.40;99.90
61400;DHT22;47269;48.182;-1.946;2023-06-04T15:01:37;29.30;99.90
61400;DHT22;47269;48.182;-1.946;2023-06-04T15:04:06;29.50;99.90
61400;DHT22;47269;48.182;-1.946;2023-06-04T15:06:32;28.80;99.90
61400;DHT22;47269;48.182;-1.946;2023-06-04T15:08:58;28.60;99.90
61400;DHT22;47269;48.182;-1.946;2023-06-04T15:11:24;28.20;99.90
61400;DHT22;47269;48.182;-1.946;2023-06-04T15:13:51;28.00;99.90
61400;DHT22;47269;48.182;-1.946;2023-06-04T15:16:17;27.70;99.90
61400;DHT22;47269;48.182;-1.946;2023-06-04T15:18:43;27.90;99.90
61400;DHT22;47269;48.182;-1.946;2023-06-04T15:21:08;27.90;99.90
61400;DHT22;47269;48.182;-1.946;2023-06-04T15:23:34;27.80;99.90
61400;DHT22;47269;48.182;-1.946;2023-06-04T15:26:00;28.20;99.90
61400;DHT22;47269;48.182;-1.946;2023-06-04T15:28:26;28.10;99.90
61400;DHT22;47269;48.182;-1.946;2023-06-04T15:30:51;28.00;99.90
61400;DHT22;47269;48.182;-1.946;2023-06-04T15:33:17;28.20;99.90
61400;DHT22;47269;48.182;-1.946;2023-06-04T15:35:43;28.50;99.90
61400;DHT22;47269;48.182;-1.946;2023-06-04T15:38:08;28.70;99.90
61400;DHT22;47269;48.182;-1.946;2023-06-04T15:40:34;28.40;99.90
61400;DHT22;47269;48.182;-1.946;2023-06-04T15:43:00;28.40;99.90
61400;DHT22;47269;48.182;-1.946;2023-06-04T15:45:26;28.50;99.90
61400;DHT22;47269;48.182;-1.946;2023-06-04T15:47:52;28.60;99.90
61400;DHT22;47269;48.182;-1.946;2023-06-04T15:50:18;28.60;99.90
61400;DHT22;47269;48.182;-1.946;2023-06-04T15:52:44;28.50;99.90
61400;DHT22;47269;48.182;-1.946;2023-06-04T15:55:11;28.30;99.90
61400;DHT22;47269;48.182;-1.946;2023-06-04T15:57:37;28.30;99.90
61400;DHT22;47269;48.182;-1.946;2023-06-04T16:00:03;28.70;99.90
61400;DHT22;47269;48.182;-1.946;2023-06-04T16:02:29;28.60;99.90
61400;DHT22;47269;48.182;-1.946;2023-06-04T16:04:55;27.90;99.90
61400;DHT22;47269;48.182;-1.946;2023-06-04T16:07:21;27.40;99.90
61400;DHT22;47269;48.182;-1.946;2023-06-04T16:09:47;27.00;99.90
61400;DHT22;47269;48.182;-1.946;2023-06-04T16:12:16;27.00;99.90
61400;DHT22;47269;48.182;-1.946;2023-06-04T16:14:41;27.20;99.90
61400;DHT22;47269;48.182;-1.946;2023-06-04T16:17:08;27.60;99.90
61400;DHT22;47269;48.182;-1.946;2023-06-04T16:19:34;27.70;99.90
61400;DHT22;47269;48.182;-1.946;2023-06-04T16:22:00;27.30;99.90
61400;DHT22;47269;48.182;-1.946;2023-06-04T16:24:25;27.70;99.90
61400;DHT22;47269;48.182;-1.946;2023-06-04T16:26:51;27.90;99.90
61400;DHT22;47269;48.182;-1.946;2023-06-04T16:29:17;27.90;99.90
61400;DHT22;47269;48.182;-1.946;2023-06-04T16:31:42;27.80;99.90
61400;DHT22;47269;48.182;-1.946;2023-06-04T16:34:09;27.60;99.90
61400;DHT22;47269;48.182;-1.946;2023-06-04T16:36:35;27.60;99.90
61400;DHT22;47269;48.182;-1.946;2023-06-04T16:39:04;27.20;99.90
61400;DHT22;47269;48.182;-1.946;2023-06-04T16:41:30;26.90;99.90
61400;DHT22;47269;48.182;-1.946;2023-06-04T16:43:56;26.60;99.90
61400;DHT22;47269;48.182;-1.946;2023-06-04T16:46:23;26.50;99.90
61400;DHT22;47269;48.182;-1.946;2023-06-04T16:48:50;26.40;99.90
61400;DHT22;47269;48.182;-1.946;2023-06-04T16:51:16;26.70;99.90
61400;DHT22;47269;48.182;-1.946;2023-06-04T16:53:41;26.90;99.90
61400;DHT22;47269;48.182;-1.946;2023-06-04T16:56:07;26.90;99.90
61400;DHT22;47269;48.182;-1.946;2023-06-04T16:58:34;26.80;99.90
61400;DHT22;47269;48.182;-1.946;2023-06-04T17:01:04;26.60;99.90
61400;DHT22;47269;48.182;-1.946;2023-06-04T17:03:31;26.40;99.90
61400;DHT22;47269;48.182;-1.946;2023-06-04T17:05:56;26.40;99.90
61400;DHT22;47269;48.182;-1.946;2023-06-04T17:08:22;26.50;99.90
61400;DHT22;47269;48.182;-1.946;2023-06-04T17:10:48;26.50;99.90
61400;DHT22;47269;48.182;-1.946;2023-06-04T17:13:14;26.50;99.90
61400;DHT22;47269;48.182;-1.946;2023-06-04T17:15:39;26.40;99.90
61400;DHT22;47269;48.182;-1.946;2023-06-04T17:18:05;26.40;99.90
61400;DHT22;47269;48.182;-1.946;2023-06-04T17:20:35;26.30;99.90
61400;DHT22;47269;48.182;-1.946;2023-06-04T17:23:01;26.20;99.90
61400;DHT22;47269;48.182;-1.946;2023-06-04T17:25:28;26.10;99.90
61400;DHT22;47269;48.182;-1.946;2023-06-04T17:27:53;26.00;99.90
61400;DHT22;47269;48.182;-1.946;2023-06-04T17:30:22;26.10;99.90
61400;DHT22;47269;48.182;-1.946;2023-06-04T17:32:51;26.10;99.90
61400;DHT22;47269;48.182;-1.946;2023-06-04T17:35:17;25.90;99.90
61400;DHT22;47269;48.182;-1.946;2023-06-04T17:37:43;25.50;99.90
61400;DHT22;47269;48.182;-1.946;2023-06-04T17:40:09;25.30;99.90
61400;DHT22;47269;48.182;-1.946;2023-06-04T17:42:35;25.30;99.90
61400;DHT22;47269;48.182;-1.946;2023-06-04T17:45:02;25.10;99.90
61400;DHT22;47269;48.182;-1.946;2023-06-04T17:47:33;25.10;99.90
61400;DHT22;47269;48.182;-1.946;2023-06-04T17:49:59;24.90;99.90
61400;DHT22;47269;48.182;-1.946;2023-06-04T17:52:26;24.80;99.90
61400;DHT22;47269;48.182;-1.946;2023-06-04T17:54:52;24.80;99.90
61400;DHT22;47269;48.182;-1.946;2023-06-04T17:57:18;24.70;99.90
61400;DHT22;47269;48.182;-1.946;2023-06-04T17:59:43;24.70;99.90
61400;DHT22;47269;48.182;-1.946;2023-06-04T18:02:09;24.70;99.90
61400;DHT22;47269;48.182;-1.946;2023-06-04T18:04:35;24.50;99.90
61400;DHT22;47269;48.182;-1.946;2023-06-04T18:07:00;24.50;99.90
61400;DHT22;47269;48.182;-1.946;2023-06-04T18:09:26;24.40;99.90
61400;DHT22;47269;48.182;-1.946;2023-06-04T18:11:52;24.40;99.90
61400;DHT22;47269;48.182;-1.946;2023-06-04T18:14:17;24.30;99.90
61400;DHT22;47269;48.182;-1.946;2023-06-04T18:16:43;24.20;99.90
61400;DHT22;47269;48.182;-1.946;2023-06-04T18:19:09;24.20;99.90
61400;DHT22;47269;48.182;-1.946;2023-06-04T18:21:35;24.10;99.90
61400;DHT22;47269;48.182;-1.946;2023-06-04T18:24:00;24.10;99.90
61400;DHT22;47269;48.182;-1.946;2023-06-04T18:26:26;23.90;99.90
61400;DHT22;47269;48.182;-1.946;2023-06-04T18:28:52;23.90;99.90
61400;DHT22;47269;48.182;-1.946;2023-06-04T18:31:18;23.80;99.90
61400;DHT22;47269;48.182;-1.946;2023-06-04T18:33:53;23.70;99.90
61400;DHT22;47269;48.182;-1.946;2023-06-04T18:36:28;23.60;99.90
61400;DHT22;47269;48.182;-1.946;2023-06-04T18:38:54;23.60;99.90
61400;DHT22;47269;48.182;-1.946;2023-06-04T18:41:20;23.50;99.90
61400;DHT22;47269;48.182;-1.946;2023-06-04T18:43:49;23.50;99.90
61400;DHT22;47269;48.182;-1.946;2023-06-04T18:46:15;23.40;99.90
61400;DHT22;47269;48.182;-1.946;2023-06-04T18:48:40;23.40;99.90
61400;DHT22;47269;48.182;-1.946;2023-06-04T18:51:06;23.30;99.90
61400;DHT22;47269;48.182;-1.946;2023-06-04T18:53:32;23.20;99.90
61400;DHT22;47269;48.182;-1.946;2023-06-04T18:55:58;23.10;99.90
61400;DHT22;47269;48.182;-1.946;2023-06-04T18:58:23;23.00;99.90
61400;DHT22;47269;48.182;-1.946;2023-06-04T19:00:49;23.00;99.90
61400;DHT22;47269;48.182;-1.946;2023-06-04T19:03:15;22.90;99.90
61400;DHT22;47269;48.182;-1.946;2023-06-04T19:05:41;22.80;99.90
61400;DHT22;47269;48.182;-1.946;2023-06-04T19:08:07;22.80;99.90
61400;DHT22;47269;48.182;-1.946;2023-06-04T19:10:32;22.60;99.90
61400;DHT22;47269;48.182;-1.946;2023-06-04T19:12:58;22.60;99.90
61400;DHT22;47269;48.182;-1.946;2023-06-04T19:15:27;22.60;99.90
61400;DHT22;47269;48.182;-1.946;2023-06-04T19:17:52;22.50;99.90
61400;DHT22;47269;48.182;-1.946;2023-06-04T19:20:18;22.40;99.90
61400;DHT22;47269;48.182;-1.946;2023-06-04T19:22:44;22.30;99.90
61400;DHT22;47269;48.182;-1.946;2023-06-04T19:25:10;22.30;99.90
61400;DHT22;47269;48.182;-1.946;2023-06-04T19:27:35;22.20;99.90
61400;DHT22;47269;48.182;-1.946;2023-06-04T19:30:02;22.10;99.90
61400;DHT22;47269;48.182;-1.946;2023-06-04T19:32:28;22.00;99.90
61400;DHT22;47269;48.182;-1.946;2023-06-04T19:34:56;21.90;99.90
61400;DHT22;47269;48.182;-1.946;2023-06-04T19:37:22;21.90;99.90
61400;DHT22;47269;48.182;-1.946;2023-06-04T19:39:48;21.80;99.90
61400;DHT22;47269;48.182;-1.946;2023-06-04T19:42:13;21.80;99.90
61400;DHT22;47269;48.182;-1.946;2023-06-04T19:44:39;21.70;99.90
61400;DHT22;47269;48.182;-1.946;2023-06-04T19:47:05;21.60;99.90
61400;DHT22;47269;48.182;-1.946;2023-06-04T19:49:30;21.60;99.90
61400;DHT22;47269;48.182;-1.946;2023-06-04T19:51:56;21.50;99.90
61400;DHT22;47269;48.182;-1.946;2023-06-04T19:54:22;21.40;99.90
61400;DHT22;47269;48.182;-1.946;2023-06-04T19:56:47;21.40;99.90
61400;DHT22;47269;48.182;-1.946;2023-06-04T19:59:13;21.30;99.90
61400;DHT22;47269;48.182;-1.946;2023-06-04T20:01:39;21.20;99.90
61400;DHT22;47269;48.182;-1.946;2023-06-04T20:04:04;21.10;99.90
61400;DHT22;47269;48.182;-1.946;2023-06-04T20:06:30;21.00;99.90
61400;DHT22;47269;48.182;-1.946;2023-06-04T20:08:56;20.90;99.90
61400;DHT22;47269;48.182;-1.946;2023-06-04T20:11:22;20.90;99.90
61400;DHT22;47269;48.182;-1.946;2023-06-04T20:13:48;20.80;99.90
61400;DHT22;47269;48.182;-1.946;2023-06-04T20:16:15;20.70;99.90
61400;DHT22;47269;48.182;-1.946;2023-06-04T20:18:40;20.60;99.90
61400;DHT22;47269;48.182;-1.946;2023-06-04T20:21:06;20.50;99.90
61400;DHT22;47269;48.182;-1.946;2023-06-04T20:23:32;20.60;99.90
61400;DHT22;47269;48.182;-1.946;2023-06-04T20:25:57;20.50;99.90
61400;DHT22;47269;48.182;-1.946;2023-06-04T20:28:26;20.40;99.90
61400;DHT22;47269;48.182;-1.946;2023-06-04T20:30:52;20.40;99.90
61400;DHT22;47269;48.182;-1.946;2023-06-04T20:33:18;20.20;99.90
61400;DHT22;47269;48.182;-1.946;2023-06-04T20:35:43;20.20;99.90
61400;DHT22;47269;48.182;-1.946;2023-06-04T20:38:09;20.20;99.90
61400;DHT22;47269;48.182;-1.946;2023-06-04T20:40:35;20.10;99.90
61400;DHT22;47269;48.182;-1.946;2023-06-04T20:43:01;20.10;99.90
61400;DHT22;47269;48.182;-1.946;2023-06-04T20:45:26;20.10;99.90
61400;DHT22;47269;48.182;-1.946;2023-06-04T20:47:52;20.00;99.90
61400;DHT22;47269;48.182;-1.946;2023-06-04T20:50:18;20.00;99.90
61400;DHT22;47269;48.182;-1.946;2023-06-04T20:52:44;19.90;99.90
61400;DHT22;47269;48.182;-1.946;2023-06-04T20:55:09;19.70;99.90
61400;DHT22;47269;48.182;-1.946;2023-06-04T20:57:37;19.80;99.90
61400;DHT22;47269;48.182;-1.946;2023-06-04T21:00:04;19.70;99.90
61400;DHT22;47269;48.182;-1.946;2023-06-04T21:02:29;19.60;99.90
61400;DHT22;47269;48.182;-1.946;2023-06-04T21:04:55;19.50;99.90
61400;DHT22;47269;48.182;-1.946;2023-06-04T21:07:21;19.50;99.90
61400;DHT22;47269;48.182;-1.946;2023-06-04T21:09:46;19.40;99.90
61400;DHT22;47269;48.182;-1.946;2023-06-04T21:12:12;19.40;99.90
61400;DHT22;47269;48.182;-1.946;2023-06-04T21:14:38;19.40;99.90
61400;DHT22;47269;48.182;-1.946;2023-06-04T21:17:04;19.30;99.90
61400;DHT22;47269;48.182;-1.946;2023-06-04T21:19:30;19.20;99.90